sensor_id;sensor_type;location;lat;lon;timestamp;temperature;humidity
52919;DHT22;38793;52.690;6.812;2022-08-16T00:02:21;21.60;96.50
52919;DHT22;38793;52.690;6.812;2022-08-16T00:04:46;21.60;97.00
52919;DHT22;38793;52.690;6.812;2022-08-16T00:07:12;21.60;96.60
52919;DHT22;38793;52.690;6.812;2022-08-16T00:09:37;21.60;96.60
52919;DHT22;38793;52.690;6.812;2022-08-16T00:12:03;21.60;96.90
52919;DHT22;38793;52.690;6.812;2022-08-16T00:14:31;21.70;96.70
52919;DHT22;38793;52.690;6.812;2022-08-16T00:16:58;21.60;96.80
52919;DHT22;38793;52.690;6.812;2022-08-16T00:19:27;21.60;96.80
52919;DHT22;38793;52.690;6.812;2022-08-16T00:21:54;21.60;96.80
52919;DHT22;38793;52.690;6.812;2022-08-16T00:24:21;21.60;96.80
52919;DHT22;38793;52.690;6.812;2022-08-16T00:26:47;21.50;96.80
52919;DHT22;38793;52.690;6.812;2022-08-16T00:29:13;21.50;96.90
52919;DHT22;38793;52.690;6.812;2022-08-16T00:31:39;21.40;97.30
52919;DHT22;38793;52.690;6.812;2022-08-16T00:34:05;21.40;97.10
52919;DHT22;38793;52.690;6.812;2022-08-16T00:36:31;21.40;97.50
52919;DHT22;38793;52.690;6.812;2022-08-16T00:38:56;21.40;97.30
52919;DHT22;38793;52.690;6.812;2022-08-16T00:41:22;21.40;97.90
52919;DHT22;38793;52.690;6.812;2022-08-16T00:43:49;21.30;97.60
52919;DHT22;38793;52.690;6.812;2022-08-16T00:46:28;21.30;97.50
52919;DHT22;38793;52.690;6.812;2022-08-16T00:48:55;21.30;97.70
52919;DHT22;38793;52.690;6.812;2022-08-16T00:51:21;21.20;97.60
52919;DHT22;38793;52.690;6.812;2022-08-16T00:53:49;21.20;98.00
52919;DHT22;38793;52.690;6.812;2022-08-16T00:56:18;21.20;97.70
52919;DHT22;38793;52.690;6.812;2022-08-16T00:58:47;21.10;97.80
52919;DHT22;38793;52.690;6.812;2022-08-16T01:01:14;21.10;97.80
52919;DHT22;38793;52.690;6.812;2022-08-16T01:03:43;21.20;98.00
52919;DHT22;38793;52.690;6.812;2022-08-16T01:06:10;21.20;97.80
52919;DHT22;38793;52.690;6.812;2022-08-16T01:08:37;21.20;97.80
52919;DHT22;38793;52.690;6.812;2022-08-16T01:11:04;21.20;97.90
52919;DHT22;38793;52.690;6.812;2022-08-16T01:13:31;21.20;97.90
52919;DHT22;38793;52.690;6.812;2022-08-16T01:16:13;21.20;97.80
52919;DHT22;38793;52.690;6.812;2022-08-16T01:19:00;21.20;97.90
52919;DHT22;38793;52.690;6.812;2022-08-16T01:21:51;21.20;97.70
52919;DHT22;38793;52.690;6.812;2022-08-16T01:24:38;21.20;97.70
52919;DHT22;38793;52.690;6.812;2022-08-16T01:27:07;21.30;97.70
52919;DHT22;38793;52.690;6.812;2022-08-16T01:29:40;21.30;97.60
52919;DHT22;38793;52.690;6.812;2022-08-16T01:32:07;21.30;97.70
52919;DHT22;38793;52.690;6.812;2022-08-16T01:34:32;21.30;97.80
52919;DHT22;38793;52.690;6.812;2022-08-16T01:37:03;21.30;98.10
52919;DHT22;38793;52.690;6.812;2022-08-16T01:39:30;21.30;97.80
52919;DHT22;38793;52.690;6.812;2022-08-16T01:41:56;21.30;97.90
52919;DHT22;38793;52.690;6.812;2022-08-16T01:44:21;21.30;97.70
52919;DHT22;38793;52.690;6.812;2022-08-16T01:46:48;21.30;98.10
52919;DHT22;38793;52.690;6.812;2022-08-16T01:49:23;21.20;97.90
52919;DHT22;38793;52.690;6.812;2022-08-16T01:51:58;21.20;97.90
52919;DHT22;38793;52.690;6.812;2022-08-16T01:54:25;21.20;98.10
52919;DHT22;38793;52.690;6.812;2022-08-16T01:56:50;21.20;97.90
52919;DHT22;38793;52.690;6.812;2022-08-16T01:59:18;21.10;98.10
52919;DHT22;38793;52.690;6.812;2022-08-16T02:01:46;21.10;97.80
52919;DHT22;38793;52.690;6.812;2022-08-16T02:04:12;21.00;97.70
52919;DHT22;38793;52.690;6.812;2022-08-16T02:06:38;20.80;97.70
52919;DHT22;38793;52.690;6.812;2022-08-16T02:09:06;20.70;98.20
52919;DHT22;38793;52.690;6.812;2022-08-16T02:11:33;20.70;98.20
52919;DHT22;38793;52.690;6.812;2022-08-16T02:13:59;20.60;98.30
52919;DHT22;38793;52.690;6.812;2022-08-16T02:16:25;20.60;98.40
52919;DHT22;38793;52.690;6.812;2022-08-16T02:18:51;20.60;98.70
52919;DHT22;38793;52.690;6.812;2022-08-16T02:21:16;20.60;98.50
52919;DHT22;38793;52.690;6.812;2022-08-16T02:23:44;20.60;98.70
52919;DHT22;38793;52.690;6.812;2022-08-16T02:26:09;20.60;98.40
52919;DHT22;38793;52.690;6.812;2022-08-16T02:28:35;20.60;98.20
52919;DHT22;38793;52.690;6.812;2022-08-16T02:31:05;20.60;98.60
52919;DHT22;38793;52.690;6.812;2022-08-16T02:33:31;20.50;98.30
52919;DHT22;38793;52.690;6.812;2022-08-16T02:35:57;20.50;98.50
52919;DHT22;38793;52.690;6.812;2022-08-16T02:38:23;20.50;98.60
52919;DHT22;38793;52.690;6.812;2022-08-16T02:40:48;20.50;98.90
52919;DHT22;38793;52.690;6.812;2022-08-16T02:43:14;20.60;98.60
52919;DHT22;38793;52.690;6.812;2022-08-16T02:45:40;20.60;98.90
52919;DHT22;38793;52.690;6.812;2022-08-16T02:48:05;20.60;98.60
52919;DHT22;38793;52.690;6.812;2022-08-16T02:50:31;20.50;98.50
52919;DHT22;38793;52.690;6.812;2022-08-16T02:52:56;20.50;98.30
52919;DHT22;38793;52.690;6.812;2022-08-16T02:55:22;20.40;98.50
52919;DHT22;38793;52.690;6.812;2022-08-16T02:57:48;20.40;98.50
52919;DHT22;38793;52.690;6.812;2022-08-16T03:00:15;20.40;98.80
52919;DHT22;38793;52.690;6.812;2022-08-16T03:02:41;20.40;98.60
52919;DHT22;38793;52.690;6.812;2022-08-16T03:05:12;20.40;98.60
52919;DHT22;38793;52.690;6.812;2022-08-16T03:07:38;20.50;98.80
52919;DHT22;38793;52.690;6.812;2022-08-16T03:10:07;20.50;98.70
52919;DHT22;38793;52.690;6.812;2022-08-16T03:12:33;20.50;98.60
52919;DHT22;38793;52.690;6.812;2022-08-16T03:14:59;20.60;98.60
52919;DHT22;38793;52.690;6.812;2022-08-16T03:17:25;20.60;98.80
52919;DHT22;38793;52.690;6.812;2022-08-16T03:19:50;20.50;98.30
52919;DHT22;38793;52.690;6.812;2022-08-16T03:22:18;20.50;98.50
52919;DHT22;38793;52.690;6.812;2022-08-16T03:24:44;20.40;98.40
52919;DHT22;38793;52.690;6.812;2022-08-16T03:27:09;20.30;98.40
52919;DHT22;38793;52.690;6.812;2022-08-16T03:29:35;20.30;98.60
52919;DHT22;38793;52.690;6.812;2022-08-16T03:32:01;20.20;98.40
52919;DHT22;38793;52.690;6.812;2022-08-16T03:34:29;20.20;98.60
52919;DHT22;38793;52.690;6.812;2022-08-16T03:36:55;20.20;98.50
52919;DHT22;38793;52.690;6.812;2022-08-16T03:39:22;20.20;98.50
52919;DHT22;38793;52.690;6.812;2022-08-16T03:41:48;20.10;98.80
52919;DHT22;38793;52.690;6.812;2022-08-16T03:44:15;20.10;98.80
52919;DHT22;38793;52.690;6.812;2022-08-16T03:46:41;20.10;98.80
52919;DHT22;38793;52.690;6.812;2022-08-16T03:49:08;20.10;99.00
52919;DHT22;38793;52.690;6.812;2022-08-16T03:51:40;20.10;98.70
52919;DHT22;38793;52.690;6.812;2022-08-16T03:54:06;20.10;98.70
52919;DHT22;38793;52.690;6.812;2022-08-16T03:56:32;20.10;98.70
52919;DHT22;38793;52.690;6.812;2022-08-16T03:58:58;20.10;98.60
52919;DHT22;38793;52.690;6.812;2022-08-16T04:01:24;20.10;98.80
52919;DHT22;38793;52.690;6.812;2022-08-16T04:03:51;20.10;98.50
52919;DHT22;38793;52.690;6.812;2022-08-16T04:06:16;20.10;98.40
52919;DHT22;38793;52.690;6.812;2022-08-16T04:08:42;20.00;98.50
52919;DHT22;38793;52.690;6.812;2022-08-16T04:11:08;20.00;98.50
52919;DHT22;38793;52.690;6.812;2022-08-16T04:13:34;20.00;98.60
52919;DHT22;38793;52.690;6.812;2022-08-16T04:15:59;20.00;98.50
52919;DHT22;38793;52.690;6.812;2022-08-16T04:18:26;20.00;98.70
52919;DHT22;38793;52.690;6.812;2022-08-16T04:20:52;20.00;98.40
52919;DHT22;38793;52.690;6.812;2022-08-16T04:23:19;19.90;98.60
52919;DHT22;38793;52.690;6.812;2022-08-16T04:25:45;19.90;98.40
52919;DHT22;38793;52.690;6.812;2022-08-16T04:28:11;19.80;98.40
52919;DHT22;38793;52.690;6.812;2022-08-16T04:30:37;19.80;98.50
52919;DHT22;38793;52.690;6.812;2022-08-16T04:33:04;19.80;98.60
52919;DHT22;38793;52.690;6.812;2022-08-16T04:35:30;19.80;98.70
52919;DHT22;38793;52.690;6.812;2022-08-16T04:37:56;19.80;98.60
52919;DHT22;38793;52.690;6.812;2022-08-16T04:40:23;19.70;98.70
52919;DHT22;38793;52.690;6.812;2022-08-16T04:42:50;19.60;98.40
52919;DHT22;38793;52.690;6.812;2022-08-16T04:45:17;19.60;98.40
52919;DHT22;38793;52.690;6.812;2022-08-16T04:47:43;19.50;98.40
52919;DHT22;38793;52.690;6.812;2022-08-16T04:50:19;19.50;98.30
52919;DHT22;38793;52.690;6.812;2022-08-16T04:52:47;19.50;98.60
52919;DHT22;38793;52.690;6.812;2022-08-16T04:55:22;19.40;98.60
52919;DHT22;38793;52.690;6.812;2022-08-16T04:57:49;19.50;98.60
52919;DHT22;38793;52.690;6.812;2022-08-16T05:00:23;19.50;98.80
52919;DHT22;38793;52.690;6.812;2022-08-16T05:02:51;19.50;99.00
52919;DHT22;38793;52.690;6.812;2022-08-16T05:05:17;19.50;98.80
52919;DHT22;38793;52.690;6.812;2022-08-16T05:07:43;19.50;98.70
52919;DHT22;38793;52.690;6.812;2022-08-16T05:10:09;19.60;98.90
52919;DHT22;38793;52.690;6.812;2022-08-16T05:12:35;19.60;98.70
52919;DHT22;38793;52.690;6.812;2022-08-16T05:15:01;19.50;98.90
52919;DHT22;38793;52.690;6.812;2022-08-16T05:17:28;19.60;98.70
52919;DHT22;38793;52.690;6.812;2022-08-16T05:19:53;19.70;98.70
52919;DHT22;38793;52.690;6.812;2022-08-16T05:22:19;19.70;98.70
52919;DHT22;38793;52.690;6.812;2022-08-16T05:24:44;19.70;98.80
52919;DHT22;38793;52.690;6.812;2022-08-16T05:27:10;19.70;98.80
52919;DHT22;38793;52.690;6.812;2022-08-16T05:29:36;19.70;98.60
52919;DHT22;38793;52.690;6.812;2022-08-16T05:32:01;19.70;98.70
52919;DHT22;38793;52.690;6.812;2022-08-16T05:34:28;19.70;98.90
52919;DHT22;38793;52.690;6.812;2022-08-16T05:36:53;19.80;98.80
52919;DHT22;38793;52.690;6.812;2022-08-16T05:39:22;19.80;98.90
52919;DHT22;38793;52.690;6.812;2022-08-16T05:41:49;19.90;98.70
52919;DHT22;38793;52.690;6.812;2022-08-16T05:44:16;20.00;98.70
52919;DHT22;38793;52.690;6.812;2022-08-16T05:46:41;20.00;98.60
52919;DHT22;38793;52.690;6.812;2022-08-16T05:49:09;20.10;98.60
52919;DHT22;38793;52.690;6.812;2022-08-16T05:51:39;20.10;98.60
52919;DHT22;38793;52.690;6.812;2022-08-16T05:54:05;20.20;98.50
52919;DHT22;38793;52.690;6.812;2022-08-16T05:56:31;20.20;98.50
52919;DHT22;38793;52.690;6.812;2022-08-16T05:58:57;20.30;98.50
52919;DHT22;38793;52.690;6.812;2022-08-16T06:01:22;20.40;98.60
52919;DHT22;38793;52.690;6.812;2022-08-16T06:03:48;20.40;98.40
52919;DHT22;38793;52.690;6.812;2022-08-16T06:06:13;20.50;98.40
52919;DHT22;38793;52.690;6.812;2022-08-16T06:08:39;20.60;98.30
52919;DHT22;38793;52.690;6.812;2022-08-16T06:11:06;20.70;98.60
52919;DHT22;38793;52.690;6.812;2022-08-16T06:13:32;20.80;98.40
52919;DHT22;38793;52.690;6.812;2022-08-16T06:15:59;20.90;98.20
52919;DHT22;38793;52.690;6.812;2022-08-16T06:18:24;21.00;98.40
52919;DHT22;38793;52.690;6.812;2022-08-16T06:20:50;21.20;98.20
52919;DHT22;38793;52.690;6.812;2022-08-16T06:23:16;21.30;98.00
52919;DHT22;38793;52.690;6.812;2022-08-16T06:25:41;21.30;97.50
52919;DHT22;38793;52.690;6.812;2022-08-16T06:28:08;21.30;97.60
52919;DHT22;38793;52.690;6.812;2022-08-16T06:30:34;21.20;97.50
52919;DHT22;38793;52.690;6.812;2022-08-16T06:32:59;21.30;97.50
52919;DHT22;38793;52.690;6.812;2022-08-16T06:35:26;21.20;97.50
52919;DHT22;38793;52.690;6.812;2022-08-16T06:37:51;21.20;97.20
52919;DHT22;38793;52.690;6.812;2022-08-16T06:40:17;21.20;97.50
52919;DHT22;38793;52.690;6.812;2022-08-16T06:42:42;21.30;97.40
52919;DHT22;38793;52.690;6.812;2022-08-16T06:45:08;21.30;97.50
52919;DHT22;38793;52.690;6.812;2022-08-16T06:47:34;21.30;97.60
52919;DHT22;38793;52.690;6.812;2022-08-16T06:49:59;21.40;97.30
52919;DHT22;38793;52.690;6.812;2022-08-16T06:52:25;21.40;97.20
52919;DHT22;38793;52.690;6.812;2022-08-16T06:54:50;21.50;97.50
52919;DHT22;38793;52.690;6.812;2022-08-16T06:57:16;21.60;97.50
52919;DHT22;38793;52.690;6.812;2022-08-16T06:59:44;21.80;97.20
52919;DHT22;38793;52.690;6.812;2022-08-16T07:02:11;21.80;96.90
52919;DHT22;38793;52.690;6.812;2022-08-16T07:04:36;21.90;96.40
52919;DHT22;38793;52.690;6.812;2022-08-16T07:07:02;21.90;96.10
52919;DHT22;38793;52.690;6.812;2022-08-16T07:09:30;22.00;95.90
52919;DHT22;38793;52.690;6.812;2022-08-16T07:11:56;22.00;95.90
52919;DHT22;38793;52.690;6.812;2022-08-16T07:14:21;22.10;95.60
52919;DHT22;38793;52.690;6.812;2022-08-16T07:16:47;22.10;95.70
52919;DHT22;38793;52.690;6.812;2022-08-16T07:19:12;22.10;95.60
52919;DHT22;38793;52.690;6.812;2022-08-16T07:21:41;22.10;95.80
52919;DHT22;38793;52.690;6.812;2022-08-16T07:24:08;22.20;95.50
52919;DHT22;38793;52.690;6.812;2022-08-16T07:26:33;22.30;95.60
52919;DHT22;38793;52.690;6.812;2022-08-16T07:28:59;22.40;95.20
52919;DHT22;38793;52.690;6.812;2022-08-16T07:31:25;22.40;95.00
52919;DHT22;38793;52.690;6.812;2022-08-16T07:33:50;22.50;95.10
52919;DHT22;38793;52.690;6.812;2022-08-16T07:36:16;22.60;94.90
52919;DHT22;38793;52.690;6.812;2022-08-16T07:38:43;22.60;94.90
52919;DHT22;38793;52.690;6.812;2022-08-16T07:41:08;22.70;94.80
52919;DHT22;38793;52.690;6.812;2022-08-16T07:43:34;22.70;94.70
52919;DHT22;38793;52.690;6.812;2022-08-16T07:46:00;22.80;94.40
52919;DHT22;38793;52.690;6.812;2022-08-16T07:48:26;22.80;94.40
52919;DHT22;38793;52.690;6.812;2022-08-16T07:50:52;22.80;94.50
52919;DHT22;38793;52.690;6.812;2022-08-16T07:53:17;22.90;94.30
52919;DHT22;38793;52.690;6.812;2022-08-16T07:55:43;23.00;94.40
52919;DHT22;38793;52.690;6.812;2022-08-16T07:58:09;23.10;94.30
52919;DHT22;38793;52.690;6.812;2022-08-16T08:00:35;23.10;94.10
52919;DHT22;38793;52.690;6.812;2022-08-16T08:03:03;23.30;94.00
52919;DHT22;38793;52.690;6.812;2022-08-16T08:05:28;23.30;93.80
52919;DHT22;38793;52.690;6.812;2022-08-16T08:07:55;23.40;93.70
52919;DHT22;38793;52.690;6.812;2022-08-16T08:10:22;23.40;93.60
52919;DHT22;38793;52.690;6.812;2022-08-16T08:12:50;23.50;93.90
52919;DHT22;38793;52.690;6.812;2022-08-16T08:15:17;23.70;94.00
52919;DHT22;38793;52.690;6.812;2022-08-16T08:17:42;23.80;93.70
52919;DHT22;38793;52.690;6.812;2022-08-16T08:20:13;23.90;93.70
52919;DHT22;38793;52.690;6.812;2022-08-16T08:22:39;24.10;93.30
52919;DHT22;38793;52.690;6.812;2022-08-16T08:25:06;24.10;93.00
52919;DHT22;38793;52.690;6.812;2022-08-16T08:27:31;24.20;92.90
52919;DHT22;38793;52.690;6.812;2022-08-16T08:29:57;24.30;92.70
52919;DHT22;38793;52.690;6.812;2022-08-16T08:32:23;24.30;92.20
52919;DHT22;38793;52.690;6.812;2022-08-16T08:34:49;24.40;92.50
52919;DHT22;38793;52.690;6.812;2022-08-16T08:37:15;24.50;92.30
52919;DHT22;38793;52.690;6.812;2022-08-16T08:39:40;24.60;92.40
52919;DHT22;38793;52.690;6.812;2022-08-16T08:42:06;24.70;92.10
52919;DHT22;38793;52.690;6.812;2022-08-16T08:44:33;24.70;91.80
52919;DHT22;38793;52.690;6.812;2022-08-16T08:47:00;24.80;91.50
52919;DHT22;38793;52.690;6.812;2022-08-16T08:49:28;24.90;91.20
52919;DHT22;38793;52.690;6.812;2022-08-16T08:51:54;24.90;91.30
52919;DHT22;38793;52.690;6.812;2022-08-16T08:54:20;25.00;90.90
52919;DHT22;38793;52.690;6.812;2022-08-16T08:56:46;25.10;90.90
52919;DHT22;38793;52.690;6.812;2022-08-16T08:59:12;25.10;90.80
52919;DHT22;38793;52.690;6.812;2022-08-16T09:01:38;25.20;90.30
52919;DHT22;38793;52.690;6.812;2022-08-16T09:04:05;25.20;90.10
52919;DHT22;38793;52.690;6.812;2022-08-16T09:06:31;25.30;90.30
52919;DHT22;38793;52.690;6.812;2022-08-16T09:08:58;25.40;90.10
52919;DHT22;38793;52.690;6.812;2022-08-16T09:11:25;25.40;89.20
52919;DHT22;38793;52.690;6.812;2022-08-16T09:13:51;25.50;89.10
52919;DHT22;38793;52.690;6.812;2022-08-16T09:16:17;25.60;89.70
52919;DHT22;38793;52.690;6.812;2022-08-16T09:18:44;25.70;89.20
52919;DHT22;38793;52.690;6.812;2022-08-16T09:21:10;25.70;88.80
52919;DHT22;38793;52.690;6.812;2022-08-16T09:23:36;25.80;87.70
52919;DHT22;38793;52.690;6.812;2022-08-16T09:26:04;25.90;87.70
52919;DHT22;38793;52.690;6.812;2022-08-16T09:28:29;26.00;86.90
52919;DHT22;38793;52.690;6.812;2022-08-16T09:30:55;26.00;84.80
52919;DHT22;38793;52.690;6.812;2022-08-16T09:33:21;26.10;83.90
52919;DHT22;38793;52.690;6.812;2022-08-16T09:35:48;26.10;83.60
52919;DHT22;38793;52.690;6.812;2022-08-16T09:38:14;26.10;84.10
52919;DHT22;38793;52.690;6.812;2022-08-16T09:40:41;26.20;83.00
52919;DHT22;38793;52.690;6.812;2022-08-16T09:43:12;26.20;82.80
52919;DHT22;38793;52.690;6.812;2022-08-16T09:45:38;26.30;82.60
52919;DHT22;38793;52.690;6.812;2022-08-16T09:48:07;26.30;82.60
52919;DHT22;38793;52.690;6.812;2022-08-16T09:50:33;26.40;82.70
52919;DHT22;38793;52.690;6.812;2022-08-16T09:53:01;26.50;81.80
52919;DHT22;38793;52.690;6.812;2022-08-16T09:55:27;26.60;82.30
52919;DHT22;38793;52.690;6.812;2022-08-16T09:57:53;26.60;81.90
52919;DHT22;38793;52.690;6.812;2022-08-16T10:00:19;26.70;81.40
52919;DHT22;38793;52.690;6.812;2022-08-16T10:02:45;26.80;82.10
52919;DHT22;38793;52.690;6.812;2022-08-16T10:05:12;26.80;80.90
52919;DHT22;38793;52.690;6.812;2022-08-16T10:07:38;26.80;80.00
52919;DHT22;38793;52.690;6.812;2022-08-16T10:10:05;26.80;81.40
52919;DHT22;38793;52.690;6.812;2022-08-16T10:12:30;26.90;80.80
52919;DHT22;38793;52.690;6.812;2022-08-16T10:15:17;27.00;80.40
52919;DHT22;38793;52.690;6.812;2022-08-16T10:17:46;27.00;80.10
52919;DHT22;38793;52.690;6.812;2022-08-16T10:20:12;27.10;79.90
52919;DHT22;38793;52.690;6.812;2022-08-16T10:22:39;27.20;78.80
52919;DHT22;38793;52.690;6.812;2022-08-16T10:25:05;27.30;78.70
52919;DHT22;38793;52.690;6.812;2022-08-16T10:27:32;27.30;78.40
52919;DHT22;38793;52.690;6.812;2022-08-16T10:30:00;27.30;77.70
52919;DHT22;38793;52.690;6.812;2022-08-16T10:32:26;27.40;76.60
52919;DHT22;38793;52.690;6.812;2022-08-16T10:34:51;27.40;75.80
52919;DHT22;38793;52.690;6.812;2022-08-16T10:37:17;27.40;76.50
52919;DHT22;38793;52.690;6.812;2022-08-16T10:39:43;27.50;76.30
52919;DHT22;38793;52.690;6.812;2022-08-16T10:42:11;27.60;76.10
52919;DHT22;38793;52.690;6.812;2022-08-16T10:44:37;27.70;76.00
52919;DHT22;38793;52.690;6.812;2022-08-16T10:47:03;27.70;73.70
52919;DHT22;38793;52.690;6.812;2022-08-16T10:49:29;27.70;73.90
52919;DHT22;38793;52.690;6.812;2022-08-16T10:51:54;27.70;73.90
52919;DHT22;38793;52.690;6.812;2022-08-16T10:54:21;27.70;74.60
52919;DHT22;38793;52.690;6.812;2022-08-16T10:56:47;27.80;74.50
52919;DHT22;38793;52.690;6.812;2022-08-16T10:59:13;27.90;73.80
52919;DHT22;38793;52.690;6.812;2022-08-16T11:01:38;28.00;73.10
52919;DHT22;38793;52.690;6.812;2022-08-16T11:04:04;28.00;73.30
52919;DHT22;38793;52.690;6.812;2022-08-16T11:06:31;28.10;73.50
52919;DHT22;38793;52.690;6.812;2022-08-16T11:08:57;28.20;73.70
52919;DHT22;38793;52.690;6.812;2022-08-16T11:11:23;28.20;71.90
52919;DHT22;38793;52.690;6.812;2022-08-16T11:13:51;28.30;71.00
52919;DHT22;38793;52.690;6.812;2022-08-16T11:16:18;28.30;70.90
52919;DHT22;38793;52.690;6.812;2022-08-16T11:18:44;28.40;70.70
52919;DHT22;38793;52.690;6.812;2022-08-16T11:21:10;28.50;70.50
52919;DHT22;38793;52.690;6.812;2022-08-16T11:23:36;28.50;70.50
52919;DHT22;38793;52.690;6.812;2022-08-16T11:26:02;28.50;69.80
52919;DHT22;38793;52.690;6.812;2022-08-16T11:28:28;28.60;70.10
52919;DHT22;38793;52.690;6.812;2022-08-16T11:30:53;28.70;69.80
52919;DHT22;38793;52.690;6.812;2022-08-16T11:33:19;28.70;68.40
52919;DHT22;38793;52.690;6.812;2022-08-16T11:35:45;28.70;68.60
52919;DHT22;38793;52.690;6.812;2022-08-16T11:38:14;28.70;67.60
52919;DHT22;38793;52.690;6.812;2022-08-16T11:40:44;28.80;65.90
52919;DHT22;38793;52.690;6.812;2022-08-16T11:43:17;28.80;65.30
52919;DHT22;38793;52.690;6.812;2022-08-16T11:45:45;28.80;64.70
52919;DHT22;38793;52.690;6.812;2022-08-16T11:48:11;28.80;64.60
52919;DHT22;38793;52.690;6.812;2022-08-16T11:50:39;28.80;65.20
52919;DHT22;38793;52.690;6.812;2022-08-16T11:53:05;28.80;65.10
52919;DHT22;38793;52.690;6.812;2022-08-16T11:55:32;28.90;65.70
52919;DHT22;38793;52.690;6.812;2022-08-16T11:57:59;29.10;65.40
52919;DHT22;38793;52.690;6.812;2022-08-16T12:00:26;29.10;64.00
52919;DHT22;38793;52.690;6.812;2022-08-16T12:02:52;29.20;64.30
52919;DHT22;38793;52.690;6.812;2022-08-16T12:05:18;29.20;64.00
52919;DHT22;38793;52.690;6.812;2022-08-16T12:07:44;29.20;62.90
52919;DHT22;38793;52.690;6.812;2022-08-16T12:10:13;29.20;63.40
52919;DHT22;38793;52.690;6.812;2022-08-16T12:12:39;29.30;63.00
52919;DHT22;38793;52.690;6.812;2022-08-16T12:15:06;29.40;62.70
52919;DHT22;38793;52.690;6.812;2022-08-16T12:17:32;29.40;62.50
52919;DHT22;38793;52.690;6.812;2022-08-16T12:19:58;29.50;62.90
52919;DHT22;38793;52.690;6.812;2022-08-16T12:22:24;29.50;62.10
52919;DHT22;38793;52.690;6.812;2022-08-16T12:24:50;29.60;63.10
52919;DHT22;38793;52.690;6.812;2022-08-16T12:27:17;29.60;62.20
52919;DHT22;38793;52.690;6.812;2022-08-16T12:29:42;29.70;62.00
52919;DHT22;38793;52.690;6.812;2022-08-16T12:32:08;29.80;60.90
52919;DHT22;38793;52.690;6.812;2022-08-16T12:34:34;29.80;62.10
52919;DHT22;38793;52.690;6.812;2022-08-16T12:37:01;29.90;61.70
52919;DHT22;38793;52.690;6.812;2022-08-16T12:39:28;29.90;61.00
52919;DHT22;38793;52.690;6.812;2022-08-16T12:41:53;29.80;60.40
52919;DHT22;38793;52.690;6.812;2022-08-16T12:44:20;29.70;60.60
52919;DHT22;38793;52.690;6.812;2022-08-16T12:46:46;29.60;61.50
52919;DHT22;38793;52.690;6.812;2022-08-16T12:49:32;29.50;61.10
52919;DHT22;38793;52.690;6.812;2022-08-16T12:51:57;29.40;61.30
52919;DHT22;38793;52.690;6.812;2022-08-16T12:54:23;29.40;60.30
52919;DHT22;38793;52.690;6.812;2022-08-16T12:56:49;29.30;61.20
52919;DHT22;38793;52.690;6.812;2022-08-16T12:59:14;29.30;61.80
52919;DHT22;38793;52.690;6.812;2022-08-16T13:01:40;29.30;62.10
52919;DHT22;38793;52.690;6.812;2022-08-16T13:04:07;29.40;62.40
52919;DHT22;38793;52.690;6.812;2022-08-16T13:06:34;29.40;60.80
52919;DHT22;38793;52.690;6.812;2022-08-16T13:09:01;29.50;61.30
52919;DHT22;38793;52.690;6.812;2022-08-16T13:11:43;29.60;60.60
52919;DHT22;38793;52.690;6.812;2022-08-16T13:14:13;29.90;61.00
52919;DHT22;38793;52.690;6.812;2022-08-16T13:16:39;30.00;60.40
52919;DHT22;38793;52.690;6.812;2022-08-16T13:19:06;30.00;59.60
52919;DHT22;38793;52.690;6.812;2022-08-16T13:21:32;30.00;60.00
52919;DHT22;38793;52.690;6.812;2022-08-16T13:23:57;30.00;60.60
52919;DHT22;38793;52.690;6.812;2022-08-16T13:26:24;30.10;60.10
52919;DHT22;38793;52.690;6.812;2022-08-16T13:28:50;30.20;60.20
52919;DHT22;38793;52.690;6.812;2022-08-16T13:31:16;30.30;61.30
52919;DHT22;38793;52.690;6.812;2022-08-16T13:33:41;30.40;60.90
52919;DHT22;38793;52.690;6.812;2022-08-16T13:36:09;30.40;59.60
52919;DHT22;38793;52.690;6.812;2022-08-16T13:38:37;30.40;59.60
52919;DHT22;38793;52.690;6.812;2022-08-16T13:41:04;30.30;59.00
52919;DHT22;38793;52.690;6.812;2022-08-16T13:43:30;30.30;59.90
52919;DHT22;38793;52.690;6.812;2022-08-16T13:45:57;30.40;59.60
52919;DHT22;38793;52.690;6.812;2022-08-16T13:48:26;30.30;59.00
52919;DHT22;38793;52.690;6.812;2022-08-16T13:50:56;30.30;59.10
52919;DHT22;38793;52.690;6.812;2022-08-16T13:53:23;30.30;59.20
52919;DHT22;38793;52.690;6.812;2022-08-16T13:55:48;30.30;58.70
52919;DHT22;38793;52.690;6.812;2022-08-16T13:58:14;30.30;59.60
52919;DHT22;38793;52.690;6.812;2022-08-16T14:00:39;30.40;60.20
52919;DHT22;38793;52.690;6.812;2022-08-16T14:03:07;30.50;59.90
52919;DHT22;38793;52.690;6.812;2022-08-16T14:05:33;30.60;59.00
52919;DHT22;38793;52.690;6.812;2022-08-16T14:07:58;30.70;58.90
52919;DHT22;38793;52.690;6.812;2022-08-16T14:10:24;30.60;58.20
52919;DHT22;38793;52.690;6.812;2022-08-16T14:12:50;30.40;59.20
52919;DHT22;38793;52.690;6.812;2022-08-16T14:15:16;30.30;59.90
52919;DHT22;38793;52.690;6.812;2022-08-16T14:17:43;30.20;59.70
52919;DHT22;38793;52.690;6.812;2022-08-16T14:20:09;30.20;59.50
52919;DHT22;38793;52.690;6.812;2022-08-16T14:22:36;30.10;59.70
52919;DHT22;38793;52.690;6.812;2022-08-16T14:25:05;30.10;59.80
52919;DHT22;38793;52.690;6.812;2022-08-16T14:27:32;30.00;59.50
52919;DHT22;38793;52.690;6.812;2022-08-16T14:29:58;30.00;60.50
52919;DHT22;38793;52.690;6.812;2022-08-16T14:32:29;30.00;61.10
52919;DHT22;38793;52.690;6.812;2022-08-16T14:34:56;30.00;60.50
52919;DHT22;38793;52.690;6.812;2022-08-16T14:37:23;30.00;60.60
52919;DHT22;38793;52.690;6.812;2022-08-16T14:39:48;30.10;60.40
52919;DHT22;38793;52.690;6.812;2022-08-16T14:44:46;30.10;60.70
52919;DHT22;38793;52.690;6.812;2022-08-16T14:47:12;30.10;61.30
52919;DHT22;38793;52.690;6.812;2022-08-16T14:49:38;29.90;61.30
52919;DHT22;38793;52.690;6.812;2022-08-16T14:52:10;29.80;61.00
52919;DHT22;38793;52.690;6.812;2022-08-16T14:54:36;29.80;61.50
52919;DHT22;38793;52.690;6.812;2022-08-16T14:57:02;29.70;62.20
52919;DHT22;38793;52.690;6.812;2022-08-16T14:59:28;29.70;62.10
52919;DHT22;38793;52.690;6.812;2022-08-16T15:01:54;29.60;61.90
52919;DHT22;38793;52.690;6.812;2022-08-16T15:04:20;29.60;63.10
52919;DHT22;38793;52.690;6.812;2022-08-16T15:06:45;29.60;62.70
52919;DHT22;38793;52.690;6.812;2022-08-16T15:09:11;29.50;62.50
52919;DHT22;38793;52.690;6.812;2022-08-16T15:11:37;29.40;63.40
52919;DHT22;38793;52.690;6.812;2022-08-16T15:14:03;29.30;63.30
52919;DHT22;38793;52.690;6.812;2022-08-16T15:16:29;29.30;63.40
52919;DHT22;38793;52.690;6.812;2022-08-16T15:18:56;29.30;63.70
52919;DHT22;38793;52.690;6.812;2022-08-16T15:21:23;29.20;63.80
52919;DHT22;38793;52.690;6.812;2022-08-16T15:23:49;29.20;64.10
52919;DHT22;38793;52.690;6.812;2022-08-16T15:26:15;29.20;64.20
52919;DHT22;38793;52.690;6.812;2022-08-16T15:28:40;29.20;64.40
52919;DHT22;38793;52.690;6.812;2022-08-16T15:31:07;29.20;64.70